Main page
METAR-TAF:

METAR-TAF

Airports :

Gatwick Airport

London-Gatwick, England

latitude: 51-09N, longitude: 000-11W, elevation: 62 m

Current weather observation

The report was made 23 minutes ago, at 15:50 UTC
Wind 5 kt from the Southeast, varying between East and South/Southwest
Temperature 21°C
Humidity 69%
Pressure 1014 hPa
Visibility 10 km or more
Scattered clouds at a height of 2300 ft

METAR: EGKK 201550Z 14005KT 100V200 9999 SCT023 21/15 Q1014

Time: 17:13 (16:13 UTC)

Forecast

The report was made 5 hours and 17 minutes ago, at 10:56 UTC
Forecast valid from 20 at 12 UTC to 21 at 18 UTC
Wind 5 kt from the South/Southeast
Visibility 10 km or more
Scattered clouds at a height of 4500 ft
Probability 30% :
Temporary
from 20 at 12 UTC to 20 at 22 UTC
Visibility: 7000 m
rain showers
Probability 30%
from 21 at 03 UTC to 21 at 07 UTC
Visibility: 6000 m

TAF: EGKK 201056Z 2012/2118 15005KT 9999 SCT045 PROB30 TEMPO 2012/2022 7000 SHRA PROB30 2103/2107 6000

Weather observations and forecasts of more than 4000 airports (METAR and TAF reports).

The available stations are represented by yellow and red dots on the map.

Hover mouse over dot to see the name of the station.

Then click to see weather observations and forecasts.

To change the map : click on the green buttons with a black cross to zoom in, on the green button with a dash to zoom out, or on the green arrows for adjacent maps.


METAR-TAF: